createdAt,value
2019-01-31T00:00:22.268Z,0.70
2019-01-31T00:01:22.249Z,0.80
2019-01-31T00:02:22.280Z,0.90
2019-01-31T00:03:22.253Z,0.70
2019-01-31T00:04:22.302Z,0.80
2019-01-31T00:05:22.221Z,0.80
2019-01-31T00:06:22.221Z,1.00
2019-01-31T00:07:22.181Z,0.90
2019-01-31T00:08:22.200Z,0.80
2019-01-31T00:09:22.192Z,0.90
2019-01-31T00:10:22.190Z,0.60
2019-01-31T00:11:22.151Z,0.80
2019-01-31T00:12:22.165Z,0.70
2019-01-31T00:13:22.121Z,0.90
2019-01-31T00:14:22.107Z,0.70
2019-01-31T00:15:22.096Z,0.80
2019-01-31T00:16:22.139Z,0.80
2019-01-31T00:17:22.141Z,0.80
2019-01-31T00:18:22.097Z,0.80
2019-01-31T00:19:22.095Z,0.70
2019-01-31T00:20:22.088Z,0.80
2019-01-31T00:21:22.077Z,0.90
2019-01-31T00:22:22.055Z,0.90
2019-01-31T00:23:22.036Z,1.00
2019-01-31T00:24:22.100Z,0.80
2019-01-31T00:25:22.096Z,0.60
2019-01-31T00:26:22.023Z,0.70
2019-01-31T00:27:21.995Z,0.70
2019-01-31T00:28:21.953Z,0.70
2019-01-31T00:29:21.961Z,0.70
2019-01-31T00:30:21.935Z,0.60
2019-01-31T00:31:21.931Z,0.70
2019-01-31T00:32:21.926Z,0.80
2019-01-31T00:33:21.920Z,1.00
2019-01-31T00:34:21.892Z,0.80
2019-01-31T00:35:21.941Z,0.90
2019-01-31T00:36:21.881Z,0.80
2019-01-31T00:37:21.887Z,0.80
2019-01-31T00:38:21.847Z,0.80
2019-01-31T00:39:21.851Z,0.70
2019-01-31T00:40:21.873Z,0.70
2019-01-31T00:41:21.833Z,0.70
2019-01-31T00:42:21.834Z,0.70
2019-01-31T00:43:21.790Z,0.90
2019-01-31T00:44:21.786Z,0.80
2019-01-31T00:45:21.799Z,0.70
2019-01-31T00:46:21.765Z,0.80
2019-01-31T00:47:21.806Z,0.80
2019-01-31T00:48:21.747Z,0.70
2019-01-31T00:49:21.756Z,0.90
2019-01-31T00:50:21.779Z,0.80
2019-01-31T00:51:21.733Z,0.80
2019-01-31T00:52:21.718Z,0.80
2019-01-31T00:53:21.675Z,0.60
2019-01-31T00:54:21.670Z,0.80
2019-01-31T00:55:21.696Z,0.70
2019-01-31T00:56:21.654Z,0.60
2019-01-31T00:57:21.709Z,0.80
2019-01-31T00:58:21.622Z,0.60
2019-01-31T00:59:21.649Z,0.80
2019-01-31T01:00:21.633Z,0.70
2019-01-31T01:01:21.605Z,0.90
2019-01-31T01:02:21.798Z,0.60
2019-01-31T01:03:21.584Z,0.90
2019-01-31T01:04:21.568Z,0.70
2019-01-31T01:05:21.582Z,0.80
2019-01-31T01:06:21.558Z,0.60
2019-01-31T01:07:21.613Z,0.90
2019-01-31T01:08:21.555Z,0.70
2019-01-31T01:09:21.502Z,0.80
2019-01-31T01:10:21.517Z,0.80
2019-01-31T01:11:21.512Z,0.70
2019-01-31T01:12:21.470Z,0.70
2019-01-31T01:13:21.473Z,0.80
2019-01-31T01:14:21.469Z,0.80
2019-01-31T01:15:21.473Z,0.70
2019-01-31T01:16:21.471Z,0.70
2019-01-31T01:17:21.433Z,0.60
2019-01-31T01:18:21.441Z,0.60
2019-01-31T01:19:21.418Z,0.70
2019-01-31T01:20:21.479Z,0.90
2019-01-31T01:21:21.422Z,0.70
2019-01-31T01:22:21.406Z,0.60
2019-01-31T01:23:21.435Z,0.70
2019-01-31T01:24:21.391Z,0.70
2019-01-31T01:25:21.440Z,0.80
2019-01-31T01:26:21.388Z,0.70
2019-01-31T01:27:21.351Z,0.80
2019-01-31T01:28:21.299Z,0.60
2019-01-31T01:29:21.288Z,0.70
2019-01-31T01:30:21.311Z,0.80
2019-01-31T01:31:21.270Z,0.80
2019-01-31T01:32:21.254Z,0.80
2019-01-31T01:33:21.248Z,0.70
2019-01-31T01:34:21.245Z,0.80
2019-01-31T01:35:21.261Z,0.80
2019-01-31T01:36:21.248Z,0.60
2019-01-31T01:37:21.198Z,0.70
2019-01-31T01:38:21.199Z,0.70
2019-01-31T01:39:21.190Z,0.80
2019-01-31T01:40:21.195Z,0.80
2019-01-31T01:41:21.159Z,0.60
2019-01-31T01:42:21.273Z,0.80
2019-01-31T01:43:21.140Z,0.70
2019-01-31T01:44:21.120Z,0.80
2019-01-31T01:45:21.165Z,0.70
2019-01-31T01:46:21.143Z,0.70
2019-01-31T01:47:21.105Z,0.80
2019-01-31T01:48:21.098Z,0.70
2019-01-31T01:49:21.097Z,0.60
2019-01-31T01:50:21.135Z,0.70
2019-01-31T01:51:21.094Z,0.90
2019-01-31T01:52:21.049Z,0.80
2019-01-31T01:53:21.026Z,0.60
2019-01-31T01:54:21.017Z,0.70
2019-01-31T01:55:21.039Z,0.70
2019-01-31T01:56:20.997Z,0.80
2019-01-31T01:57:21.043Z,0.70
2019-01-31T01:58:20.987Z,0.70
2019-01-31T01:59:20.997Z,0.70
2019-01-31T02:00:21.937Z,0.70
2019-01-31T02:01:20.957Z,0.70
2019-01-31T02:02:20.936Z,0.60
2019-01-31T02:03:20.919Z,0.80
2019-01-31T02:04:20.922Z,0.90
2019-01-31T02:05:20.953Z,0.60
2019-01-31T02:06:20.900Z,0.70
2019-01-31T02:07:20.876Z,0.60
2019-01-31T02:08:20.895Z,0.70
2019-01-31T02:09:30.037Z,0.60
2019-01-31T02:10:20.841Z,0.60
2019-01-31T02:11:20.829Z,0.70
2019-01-31T02:12:20.849Z,0.60
2019-01-31T02:13:20.813Z,0.60
2019-01-31T02:14:20.804Z,0.70
2019-01-31T02:15:20.806Z,0.80
2019-01-31T02:16:20.783Z,0.70
2019-01-31T02:17:20.796Z,0.80
2019-01-31T02:18:20.784Z,0.70
2019-01-31T02:19:20.824Z,0.70
2019-01-31T02:20:20.779Z,0.80
2019-01-31T02:21:20.809Z,0.80
2019-01-31T02:22:20.798Z,0.70
2019-01-31T02:23:20.735Z,0.70
2019-01-31T02:24:20.729Z,0.80
2019-01-31T02:25:20.717Z,0.80
2019-01-31T02:26:20.766Z,0.70
2019-01-31T02:27:20.693Z,0.80
2019-01-31T02:28:20.669Z,0.80
2019-01-31T02:29:20.679Z,0.70
2019-01-31T02:30:20.625Z,0.70
2019-01-31T02:31:20.642Z,0.70
2019-01-31T02:32:20.601Z,0.70
2019-01-31T02:33:20.584Z,0.60
2019-01-31T02:34:20.577Z,0.80
2019-01-31T02:35:20.572Z,0.70
2019-01-31T02:36:20.584Z,0.70
2019-01-31T02:37:20.550Z,0.60
2019-01-31T02:38:20.531Z,0.70
2019-01-31T02:39:20.538Z,0.70
2019-01-31T02:40:20.514Z,0.70
2019-01-31T02:41:20.530Z,0.70
2019-01-31T02:42:20.488Z,0.70
2019-01-31T02:43:20.531Z,0.70
2019-01-31T02:44:20.475Z,0.60
2019-01-31T02:45:20.467Z,0.60
2019-01-31T02:46:20.479Z,0.80
2019-01-31T02:47:20.472Z,0.80
2019-01-31T02:48:20.430Z,0.70
2019-01-31T02:49:20.488Z,0.70
2019-01-31T02:50:20.403Z,0.60
2019-01-31T02:51:20.427Z,0.60
2019-01-31T02:52:20.387Z,0.70
2019-01-31T02:53:20.375Z,0.60
2019-01-31T02:54:20.376Z,0.60
2019-01-31T02:55:20.357Z,0.70
2019-01-31T02:56:20.365Z,0.70
2019-01-31T02:57:20.342Z,0.50
2019-01-31T02:58:20.317Z,0.70
2019-01-31T02:59:20.306Z,0.70
2019-01-31T03:00:20.351Z,0.70
2019-01-31T03:01:20.314Z,0.70
2019-01-31T03:02:20.273Z,0.80
2019-01-31T03:03:20.271Z,0.70
2019-01-31T03:04:20.257Z,0.70
2019-01-31T03:05:20.239Z,0.70
2019-01-31T03:06:20.290Z,0.70
2019-01-31T03:07:20.224Z,0.70
2019-01-31T03:08:20.248Z,0.80
2019-01-31T03:09:20.194Z,0.80
2019-01-31T03:10:20.195Z,0.60
2019-01-31T03:11:20.253Z,0.70
2019-01-31T03:12:20.205Z,0.60
2019-01-31T03:13:20.159Z,0.80
2019-01-31T03:14:20.155Z,0.80
2019-01-31T03:15:20.138Z,0.70
2019-01-31T03:16:20.151Z,0.80
2019-01-31T03:17:20.175Z,0.70
2019-01-31T03:18:20.128Z,0.70
2019-01-31T03:19:20.132Z,0.60
2019-01-31T03:20:20.114Z,0.60
2019-01-31T03:21:20.179Z,0.60
2019-01-31T03:22:20.141Z,0.70
2019-01-31T03:23:20.076Z,0.60
2019-01-31T03:24:20.065Z,0.60
2019-01-31T03:25:20.063Z,0.50
2019-01-31T03:26:20.136Z,0.60
2019-01-31T03:27:20.027Z,0.60
2019-01-31T03:28:19.998Z,0.50
2019-01-31T03:29:20.023Z,0.70
2019-01-31T03:30:24.493Z,0.50
2019-01-31T03:31:19.983Z,0.70
2019-01-31T03:32:19.949Z,0.80
2019-01-31T03:33:19.986Z,0.70
2019-01-31T03:34:20.433Z,0.60
2019-01-31T03:35:19.916Z,0.60
2019-01-31T03:36:19.896Z,0.60
2019-01-31T03:37:19.930Z,0.60
2019-01-31T03:38:19.900Z,0.60
2019-01-31T03:39:19.866Z,0.60
2019-01-31T03:40:19.879Z,0.70
2019-01-31T03:41:19.913Z,0.60
2019-01-31T03:42:19.876Z,0.50
2019-01-31T03:43:19.874Z,0.50
2019-01-31T03:44:19.815Z,0.50
2019-01-31T03:45:19.860Z,0.60
2019-01-31T03:46:19.830Z,0.60
2019-01-31T03:47:19.820Z,0.70
2019-01-31T03:48:20.107Z,0.60
2019-01-31T03:49:19.764Z,0.80
2019-01-31T03:50:19.751Z,0.60
2019-01-31T03:51:19.739Z,0.70
2019-01-31T03:52:19.754Z,0.70
2019-01-31T03:53:19.738Z,0.70
2019-01-31T03:54:19.742Z,0.60
2019-01-31T03:55:19.687Z,0.60
2019-01-31T03:56:19.685Z,0.60
2019-01-31T03:57:19.705Z,0.60
2019-01-31T03:58:19.667Z,0.60
2019-01-31T03:59:19.692Z,0.50
2019-01-31T04:00:19.650Z,0.70
2019-01-31T04:01:19.639Z,0.50
2019-01-31T04:02:19.644Z,0.60
2019-01-31T04:03:19.636Z,0.70
2019-01-31T04:04:19.613Z,0.60
2019-01-31T04:05:19.588Z,0.70
2019-01-31T04:06:19.571Z,0.70
2019-01-31T04:07:19.626Z,0.60
2019-01-31T04:08:19.561Z,0.70
2019-01-31T04:09:19.604Z,0.60
2019-01-31T04:10:19.548Z,0.60
2019-01-31T04:11:19.528Z,0.70
2019-01-31T04:12:19.544Z,0.60
2019-01-31T04:13:19.501Z,0.60
2019-01-31T04:14:19.488Z,0.60
2019-01-31T04:15:19.480Z,0.60
2019-01-31T04:16:19.479Z,0.70
2019-01-31T04:17:19.712Z,0.60
2019-01-31T04:18:19.448Z,0.80
2019-01-31T04:19:19.462Z,0.80
2019-01-31T04:20:19.480Z,0.60
2019-01-31T04:21:19.442Z,0.70
2019-01-31T04:22:19.494Z,0.70
2019-01-31T04:23:19.429Z,0.70
2019-01-31T04:24:19.411Z,0.70
2019-01-31T04:25:19.466Z,0.60
2019-01-31T04:26:19.387Z,0.70
2019-01-31T04:27:19.484Z,0.70
2019-01-31T04:28:19.339Z,0.60
2019-01-31T04:29:19.330Z,0.70
2019-01-31T04:30:19.327Z,0.70
2019-01-31T04:31:19.310Z,0.70
2019-01-31T04:32:19.339Z,0.50
2019-01-31T04:33:19.309Z,0.90
2019-01-31T04:34:19.269Z,0.80
2019-01-31T04:35:19.254Z,0.70
2019-01-31T04:36:19.257Z,0.80
2019-01-31T04:37:19.273Z,0.60
2019-01-31T04:38:19.894Z,0.70
2019-01-31T04:39:19.218Z,0.80
2019-01-31T04:40:30.434Z,0.70
2019-01-31T04:41:19.201Z,0.70
2019-01-31T04:42:19.220Z,0.80
2019-01-31T04:43:19.184Z,0.80
2019-01-31T04:44:19.174Z,0.60
2019-01-31T04:45:19.219Z,0.70
2019-01-31T04:46:19.140Z,0.70
2019-01-31T04:47:19.224Z,0.80
2019-01-31T04:48:19.137Z,0.70
2019-01-31T04:49:19.105Z,0.60
2019-01-31T04:50:19.102Z,0.70
2019-01-31T04:51:19.085Z,0.70
2019-01-31T04:52:19.076Z,0.80
2019-01-31T04:53:19.073Z,0.70
2019-01-31T04:54:19.052Z,0.80
2019-01-31T04:55:19.098Z,0.70
2019-01-31T04:56:19.028Z,0.60
2019-01-31T04:57:19.014Z,0.50
2019-01-31T04:58:19.023Z,0.60
2019-01-31T04:59:19.004Z,0.70
2019-01-31T05:00:18.991Z,0.80
2019-01-31T05:01:18.969Z,0.70
2019-01-31T05:02:18.982Z,0.80
2019-01-31T05:03:18.955Z,0.80
2019-01-31T05:04:18.940Z,0.70
2019-01-31T05:05:18.937Z,0.80
2019-01-31T05:06:18.962Z,0.70
2019-01-31T05:07:18.969Z,0.80
2019-01-31T05:08:18.906Z,0.80
2019-01-31T05:09:18.903Z,0.70
2019-01-31T05:10:18.881Z,0.50
2019-01-31T05:11:18.884Z,0.70
2019-01-31T05:12:18.877Z,0.70
2019-01-31T05:13:18.982Z,0.50
2019-01-31T05:14:18.829Z,0.70
2019-01-31T05:15:18.822Z,0.60
2019-01-31T05:16:18.810Z,0.80
2019-01-31T05:17:18.841Z,0.60
2019-01-31T05:18:18.831Z,0.60
2019-01-31T05:19:18.822Z,0.80
2019-01-31T05:20:18.936Z,0.60
2019-01-31T05:21:20.955Z,0.60
2019-01-31T05:22:18.773Z,0.60
2019-01-31T05:23:18.840Z,0.70
2019-01-31T05:24:18.763Z,0.70
2019-01-31T05:25:18.751Z,0.60
2019-01-31T05:26:18.746Z,0.60
2019-01-31T05:27:18.721Z,0.60
2019-01-31T05:28:18.719Z,0.80
2019-01-31T05:29:18.674Z,0.60
2019-01-31T05:30:18.657Z,0.60
2019-01-31T05:31:18.640Z,0.70
2019-01-31T05:32:18.690Z,0.80
2019-01-31T05:33:18.694Z,0.80
2019-01-31T05:34:18.619Z,1.20
2019-01-31T05:35:18.602Z,0.90
2019-01-31T05:36:18.601Z,1.00
2019-01-31T05:37:18.579Z,0.60
2019-01-31T05:38:18.612Z,1.00
2019-01-31T05:39:18.565Z,0.80
2019-01-31T05:40:18.557Z,1.00
2019-01-31T05:41:18.549Z,0.80
2019-01-31T05:42:18.529Z,0.70
2019-01-31T05:43:18.540Z,0.70
2019-01-31T05:44:18.517Z,0.70
2019-01-31T05:45:18.509Z,0.80
2019-01-31T05:46:18.579Z,0.80
2019-01-31T05:47:18.493Z,0.60
2019-01-31T05:48:18.498Z,0.60
2019-01-31T05:49:18.452Z,0.80
2019-01-31T05:50:18.440Z,0.70
2019-01-31T05:51:18.625Z,0.60
2019-01-31T05:52:18.430Z,0.80
2019-01-31T05:53:18.461Z,0.90
2019-01-31T05:54:18.430Z,0.60
2019-01-31T05:55:18.385Z,0.90
2019-01-31T05:56:18.550Z,0.70
2019-01-31T05:57:18.371Z,0.60
2019-01-31T05:58:18.375Z,0.70
2019-01-31T05:59:18.380Z,0.70
2019-01-31T06:00:18.340Z,0.80
2019-01-31T06:01:18.318Z,0.80
2019-01-31T06:02:18.308Z,0.70
2019-01-31T06:03:18.321Z,0.70
2019-01-31T06:04:18.294Z,0.50
2019-01-31T06:05:18.302Z,0.50
2019-01-31T06:06:18.283Z,0.70
2019-01-31T06:07:18.257Z,0.60
2019-01-31T06:08:18.285Z,0.70
2019-01-31T06:09:18.239Z,0.70
2019-01-31T06:10:18.237Z,0.80
2019-01-31T06:11:18.211Z,0.70
2019-01-31T06:12:18.203Z,0.60
2019-01-31T06:13:18.224Z,0.60
2019-01-31T06:14:18.176Z,0.80
2019-01-31T06:15:18.163Z,0.80
2019-01-31T06:16:18.165Z,0.60
2019-01-31T06:17:18.209Z,0.70
2019-01-31T06:18:18.292Z,0.80
2019-01-31T06:19:18.303Z,0.70
2019-01-31T06:20:18.169Z,0.60
2019-01-31T06:21:18.131Z,0.70
2019-01-31T06:22:18.134Z,0.70
2019-01-31T06:23:18.135Z,0.80
2019-01-31T06:24:18.098Z,1.00
2019-01-31T06:25:18.137Z,1.10
2019-01-31T06:26:18.088Z,0.90
2019-01-31T06:27:18.060Z,0.60
2019-01-31T06:28:18.028Z,0.70
2019-01-31T06:29:18.041Z,0.80
2019-01-31T06:30:18.016Z,1.00
2019-01-31T06:31:18.014Z,0.80
2019-01-31T06:32:17.981Z,0.70
2019-01-31T06:33:17.977Z,0.60
2019-01-31T06:34:17.975Z,0.80
2019-01-31T06:35:17.955Z,0.70
2019-01-31T06:36:17.981Z,0.70
2019-01-31T06:37:17.929Z,0.70
2019-01-31T06:38:17.936Z,0.70
2019-01-31T06:39:20.069Z,0.60
2019-01-31T06:40:17.905Z,0.70
2019-01-31T06:41:18.948Z,0.80
2019-01-31T06:42:17.883Z,0.60
2019-01-31T06:43:17.857Z,0.70
2019-01-31T06:44:17.923Z,0.60
2019-01-31T06:45:17.863Z,0.70
2019-01-31T06:46:17.831Z,0.50
2019-01-31T06:47:17.817Z,0.50
2019-01-31T06:48:17.812Z,0.60
2019-01-31T06:49:17.833Z,0.60
2019-01-31T06:50:17.791Z,0.50
2019-01-31T06:51:17.802Z,0.50
2019-01-31T06:52:17.775Z,0.50
2019-01-31T06:53:17.749Z,0.60
2019-01-31T06:54:17.786Z,0.80
2019-01-31T06:55:17.744Z,0.50
2019-01-31T06:56:17.715Z,0.50
2019-01-31T06:57:17.733Z,0.40
2019-01-31T06:58:17.704Z,0.70
2019-01-31T06:59:17.714Z,0.60
2019-01-31T07:00:17.686Z,0.70
2019-01-31T07:01:17.682Z,0.60
2019-01-31T07:02:17.652Z,0.70
2019-01-31T07:03:17.649Z,0.70
2019-01-31T07:04:17.662Z,0.60
2019-01-31T07:05:17.632Z,0.70
2019-01-31T07:06:17.731Z,0.70
2019-01-31T07:07:17.625Z,0.70
2019-01-31T07:08:17.590Z,0.80
2019-01-31T07:09:17.614Z,0.70
2019-01-31T07:10:17.582Z,0.70
2019-01-31T07:11:17.559Z,0.80
2019-01-31T07:12:17.545Z,0.80
2019-01-31T07:13:19.228Z,0.80
2019-01-31T07:14:17.622Z,1.00
2019-01-31T07:15:17.522Z,0.90
2019-01-31T07:16:17.503Z,1.00
2019-01-31T07:17:18.415Z,0.90
2019-01-31T07:18:17.541Z,0.90
2019-01-31T07:19:17.565Z,0.90
2019-01-31T07:20:17.496Z,0.80
2019-01-31T07:21:17.586Z,1.30
2019-01-31T07:22:19.424Z,0.90
2019-01-31T07:23:17.465Z,1.00
2019-01-31T07:24:17.531Z,1.20
2019-01-31T07:25:17.452Z,1.10
2019-01-31T07:26:18.466Z,1.00
2019-01-31T07:27:21.165Z,1.10
2019-01-31T07:28:19.581Z,1.10
2019-01-31T07:29:25.768Z,1.00
2019-01-31T07:30:17.377Z,1.00
2019-01-31T07:31:17.383Z,1.00
2019-01-31T07:32:17.342Z,1.00
2019-01-31T07:33:17.313Z,1.00
2019-01-31T07:34:17.316Z,1.00
2019-01-31T07:35:17.338Z,0.90
2019-01-31T07:36:17.295Z,1.00
2019-01-31T07:37:19.184Z,0.90
2019-01-31T07:38:17.264Z,1.00
2019-01-31T07:39:17.255Z,1.00
2019-01-31T07:40:17.287Z,1.20
2019-01-31T07:41:17.234Z,1.10
2019-01-31T07:42:17.214Z,1.10
2019-01-31T07:43:17.210Z,1.30
2019-01-31T07:44:17.198Z,1.10
2019-01-31T07:45:17.211Z,1.10
2019-01-31T07:46:17.195Z,1.10
2019-01-31T07:47:17.163Z,1.10
2019-01-31T07:48:17.196Z,1.10
2019-01-31T07:49:17.149Z,1.20
2019-01-31T07:50:17.155Z,1.00
2019-01-31T07:51:17.167Z,1.20
2019-01-31T07:52:17.113Z,1.10
2019-01-31T07:53:17.098Z,1.40
2019-01-31T07:54:17.189Z,1.20
2019-01-31T07:55:17.335Z,1.20
2019-01-31T07:56:17.073Z,1.30
2019-01-31T07:57:17.086Z,1.10
2019-01-31T07:58:17.048Z,1.10
2019-01-31T07:59:17.035Z,1.10
2019-01-31T08:00:17.064Z,1.20
2019-01-31T08:01:17.128Z,1.10
2019-01-31T08:02:17.002Z,1.10
2019-01-31T08:03:17.019Z,1.00
2019-01-31T08:04:17.022Z,1.00
2019-01-31T08:05:17.092Z,1.20
2019-01-31T08:06:17.022Z,0.90
2019-01-31T08:07:16.977Z,1.20
2019-01-31T08:08:17.037Z,1.20
2019-01-31T08:09:17.322Z,1.00
2019-01-31T08:10:16.921Z,1.20
2019-01-31T08:11:17.402Z,1.20
2019-01-31T08:12:17.693Z,1.40
2019-01-31T08:13:16.950Z,1.30
2019-01-31T08:14:16.876Z,1.30
2019-01-31T08:15:16.870Z,1.10
2019-01-31T08:16:16.976Z,1.00
2019-01-31T08:17:17.009Z,1.10
2019-01-31T08:18:16.930Z,1.10
2019-01-31T08:19:16.888Z,1.10
2019-01-31T08:20:16.897Z,1.00
2019-01-31T08:21:16.909Z,1.10
2019-01-31T08:22:16.843Z,0.90
2019-01-31T08:23:16.820Z,1.00
2019-01-31T08:24:16.796Z,1.20
2019-01-31T08:25:16.842Z,1.20
2019-01-31T08:26:16.846Z,1.20
2019-01-31T08:27:17.264Z,1.10
2019-01-31T08:28:17.233Z,1.20
2019-01-31T08:29:17.180Z,1.10
2019-01-31T08:30:17.809Z,0.90
2019-01-31T08:31:16.924Z,1.10
2019-01-31T08:32:16.716Z,1.20
2019-01-31T08:33:16.674Z,1.10
2019-01-31T08:34:16.661Z,1.20
2019-01-31T08:35:16.650Z,1.20
2019-01-31T08:36:16.785Z,1.00
2019-01-31T08:37:16.630Z,1.10
2019-01-31T08:38:16.642Z,0.90
2019-01-31T08:39:16.714Z,1.10
2019-01-31T08:40:16.659Z,1.00
2019-01-31T08:41:16.668Z,1.10
2019-01-31T08:42:16.640Z,1.00
2019-01-31T08:43:16.567Z,1.10
2019-01-31T08:44:16.583Z,0.80
2019-01-31T08:45:17.009Z,1.00
2019-01-31T08:46:16.597Z,0.90
2019-01-31T08:47:16.515Z,1.00
2019-01-31T08:48:16.613Z,1.00
2019-01-31T08:49:16.515Z,1.00
2019-01-31T08:50:16.533Z,1.10
2019-01-31T08:51:16.605Z,0.90
2019-01-31T08:52:16.531Z,0.90
2019-01-31T08:53:17.373Z,0.80
2019-01-31T08:54:16.500Z,0.90
2019-01-31T08:55:16.474Z,0.90
2019-01-31T08:56:16.444Z,0.90
2019-01-31T08:57:16.420Z,0.80
2019-01-31T08:58:16.441Z,1.20
2019-01-31T08:59:16.633Z,0.90
2019-01-31T09:00:16.395Z,1.20
2019-01-31T09:01:16.392Z,1.10
2019-01-31T09:02:16.405Z,1.00
2019-01-31T09:03:16.425Z,1.00
2019-01-31T09:04:16.347Z,1.30
2019-01-31T09:05:16.310Z,1.10
2019-01-31T09:06:16.333Z,1.10
2019-01-31T09:07:16.298Z,1.40
2019-01-31T09:08:16.831Z,1.20
2019-01-31T09:09:16.273Z,1.30
2019-01-31T09:10:16.260Z,1.50
2019-01-31T09:11:16.274Z,1.20
2019-01-31T09:12:16.243Z,1.20
2019-01-31T09:13:16.255Z,1.30
2019-01-31T09:14:16.223Z,1.40
2019-01-31T09:15:16.284Z,1.40
2019-01-31T09:16:16.229Z,1.70
2019-01-31T09:17:16.246Z,1.40
2019-01-31T09:18:16.223Z,1.30
2019-01-31T09:19:16.246Z,1.20
2019-01-31T09:20:16.218Z,1.30
2019-01-31T09:21:16.261Z,1.30
2019-01-31T09:22:16.203Z,1.00
2019-01-31T09:23:16.166Z,1.30
2019-01-31T09:24:16.158Z,1.60
2019-01-31T09:25:16.167Z,1.20
2019-01-31T09:26:16.209Z,1.40
2019-01-31T09:27:16.133Z,1.50
2019-01-31T09:28:16.165Z,1.60
2019-01-31T09:29:16.087Z,1.40
2019-01-31T09:30:16.088Z,1.70
2019-01-31T09:31:16.170Z,1.80
2019-01-31T09:32:16.025Z,1.70
2019-01-31T09:33:16.089Z,1.50
2019-01-31T09:34:16.004Z,1.40
2019-01-31T09:35:16.003Z,1.30
2019-01-31T09:36:15.993Z,1.40
2019-01-31T09:37:15.992Z,1.50
2019-01-31T09:38:15.971Z,1.10
2019-01-31T09:39:15.952Z,1.40
2019-01-31T09:40:15.949Z,1.50
2019-01-31T09:41:15.935Z,1.50
2019-01-31T09:42:26.083Z,1.40
2019-01-31T09:43:15.939Z,1.30
2019-01-31T09:44:15.891Z,1.30
2019-01-31T09:45:15.877Z,1.30
2019-01-31T09:46:15.868Z,1.30
2019-01-31T09:47:15.901Z,1.40
2019-01-31T09:48:15.996Z,1.30
2019-01-31T09:49:15.852Z,1.20
2019-01-31T09:50:15.843Z,1.30
2019-01-31T09:51:15.814Z,1.20
2019-01-31T09:52:15.826Z,1.50
2019-01-31T09:53:15.871Z,1.40
2019-01-31T09:54:15.797Z,1.40
2019-01-31T09:55:15.773Z,1.60
2019-01-31T09:56:15.860Z,1.40
2019-01-31T09:57:15.847Z,1.40
2019-01-31T09:58:15.890Z,1.50
2019-01-31T09:59:15.731Z,1.40
2019-01-31T10:00:26.820Z,1.40
2019-01-31T10:01:15.755Z,1.50
2019-01-31T10:02:15.754Z,1.40
2019-01-31T10:03:15.727Z,1.30
2019-01-31T10:04:15.718Z,1.30
2019-01-31T10:05:15.682Z,1.60
2019-01-31T10:06:17.837Z,1.80
2019-01-31T10:07:18.798Z,1.50
2019-01-31T10:08:17.799Z,1.80
2019-01-31T10:09:16.108Z,1.60
2019-01-31T10:10:18.562Z,1.50
2019-01-31T10:11:15.921Z,1.90
2019-01-31T10:12:15.715Z,1.50
2019-01-31T10:13:15.673Z,1.70
2019-01-31T10:14:15.616Z,1.70
2019-01-31T10:15:15.694Z,1.90
2019-01-31T10:16:15.566Z,1.90
2019-01-31T10:17:15.584Z,1.80
2019-01-31T10:18:15.727Z,1.90
2019-01-31T10:19:16.278Z,1.50
2019-01-31T10:20:15.561Z,2.00
2019-01-31T10:21:15.730Z,1.50
2019-01-31T10:22:16.083Z,1.50
2019-01-31T10:23:15.664Z,1.70
2019-01-31T10:24:15.651Z,1.50
2019-01-31T10:25:15.481Z,1.20
2019-01-31T10:26:15.483Z,1.60
2019-01-31T10:27:15.476Z,1.40
2019-01-31T10:28:15.517Z,1.40
2019-01-31T10:29:15.422Z,1.30
2019-01-31T10:30:15.469Z,1.50
2019-01-31T10:31:15.398Z,1.20
2019-01-31T10:32:16.597Z,1.60
2019-01-31T10:33:15.433Z,1.30
2019-01-31T10:34:15.393Z,1.60
2019-01-31T10:35:15.356Z,1.60
2019-01-31T10:36:15.332Z,1.70
2019-01-31T10:37:15.548Z,1.80
2019-01-31T10:38:15.347Z,1.80
2019-01-31T10:39:15.373Z,1.70
2019-01-31T10:40:15.321Z,1.80
2019-01-31T10:41:15.598Z,1.90
2019-01-31T10:42:15.329Z,1.90
2019-01-31T10:43:15.938Z,1.60
2019-01-31T10:44:15.245Z,2.00
2019-01-31T10:45:15.266Z,1.80
2019-01-31T10:46:15.227Z,1.60
2019-01-31T10:47:15.216Z,1.80
2019-01-31T10:48:18.486Z,1.60
2019-01-31T10:49:15.224Z,1.90
2019-01-31T10:50:15.804Z,2.10
2019-01-31T10:51:15.169Z,2.10
2019-01-31T10:52:15.172Z,2.20
2019-01-31T10:53:15.172Z,1.90
2019-01-31T10:54:15.141Z,2.00
2019-01-31T10:55:15.136Z,1.90
2019-01-31T10:56:15.112Z,1.60
2019-01-31T10:57:15.122Z,1.60
2019-01-31T10:58:16.032Z,1.70
2019-01-31T10:59:15.078Z,2.00
2019-01-31T11:00:15.078Z,2.00
2019-01-31T11:01:15.072Z,1.90
2019-01-31T11:02:15.048Z,1.80
2019-01-31T11:03:15.075Z,2.00
2019-01-31T11:04:15.245Z,1.60
2019-01-31T11:05:17.265Z,1.90
2019-01-31T11:06:15.018Z,1.80
2019-01-31T11:07:15.205Z,1.70
2019-01-31T11:08:15.008Z,2.20
2019-01-31T11:09:14.972Z,1.80
2019-01-31T11:10:15.924Z,1.70
2019-01-31T11:11:15.845Z,1.80
2019-01-31T11:12:16.792Z,2.30
2019-01-31T11:13:16.345Z,1.60
2019-01-31T11:14:15.937Z,1.80
2019-01-31T11:15:14.924Z,2.00
2019-01-31T11:16:14.900Z,1.80
2019-01-31T11:17:14.982Z,1.90
2019-01-31T11:18:15.070Z,1.80
2019-01-31T11:19:15.008Z,2.00
2019-01-31T11:20:14.902Z,2.20
2019-01-31T11:21:14.893Z,1.90
2019-01-31T11:22:14.899Z,1.70
2019-01-31T11:23:14.934Z,1.80
2019-01-31T11:24:14.855Z,1.90
2019-01-31T11:25:14.838Z,2.00
2019-01-31T11:26:14.830Z,2.30
2019-01-31T11:27:14.880Z,1.80
2019-01-31T11:28:14.777Z,2.00
2019-01-31T11:29:14.765Z,1.80
2019-01-31T11:30:14.780Z,2.10
2019-01-31T11:31:14.732Z,2.10
2019-01-31T11:32:14.725Z,1.90
2019-01-31T11:33:14.715Z,1.80
2019-01-31T11:34:14.708Z,2.00
2019-01-31T11:35:14.713Z,2.10
2019-01-31T11:36:14.692Z,2.30
2019-01-31T11:37:14.685Z,1.50
2019-01-31T11:38:17.992Z,2.20
2019-01-31T11:39:14.652Z,2.00
2019-01-31T11:40:14.668Z,2.00
2019-01-31T11:41:14.655Z,1.70
2019-01-31T11:42:14.628Z,2.20
2019-01-31T11:43:14.615Z,1.80
2019-01-31T11:44:14.600Z,1.80
2019-01-31T11:45:14.656Z,1.70
2019-01-31T11:46:14.584Z,1.80
2019-01-31T11:47:14.581Z,1.80
2019-01-31T11:48:14.571Z,1.80
2019-01-31T11:49:14.549Z,2.00
2019-01-31T11:50:14.554Z,1.80
2019-01-31T11:51:14.595Z,1.70
2019-01-31T11:52:14.514Z,1.80
2019-01-31T11:53:14.498Z,2.00
2019-01-31T11:54:14.487Z,2.00
2019-01-31T11:55:14.500Z,2.00
2019-01-31T11:56:14.472Z,1.70
2019-01-31T11:57:14.450Z,2.10
2019-01-31T11:58:15.438Z,1.90
2019-01-31T11:59:14.433Z,2.20
2019-01-31T12:00:14.463Z,1.80
2019-01-31T12:01:14.441Z,1.60
2019-01-31T12:02:14.390Z,1.80
2019-01-31T12:03:14.383Z,1.90
2019-01-31T12:04:14.381Z,1.90
2019-01-31T12:05:14.418Z,2.10
2019-01-31T12:06:14.393Z,1.80
2019-01-31T12:07:14.350Z,1.80
2019-01-31T12:08:14.328Z,1.90
2019-01-31T12:09:14.339Z,1.80
2019-01-31T12:10:14.342Z,1.90
2019-01-31T12:11:14.630Z,1.90
2019-01-31T12:12:14.496Z,1.80
2019-01-31T12:13:23.140Z,2.00
2019-01-31T12:14:14.271Z,2.00
2019-01-31T12:15:14.311Z,2.00
2019-01-31T12:16:14.260Z,1.80
2019-01-31T12:17:14.298Z,2.00
2019-01-31T12:18:14.277Z,1.80
2019-01-31T12:19:14.244Z,2.20
2019-01-31T12:20:14.307Z,2.10
2019-01-31T12:21:14.346Z,2.10
2019-01-31T12:22:14.245Z,1.70
2019-01-31T12:23:14.209Z,2.00
2019-01-31T12:24:16.561Z,1.80
2019-01-31T12:25:14.279Z,1.80
2019-01-31T12:26:14.179Z,1.80
2019-01-31T12:27:14.197Z,2.10
2019-01-31T12:28:14.137Z,2.00
2019-01-31T12:29:14.125Z,1.90
2019-01-31T12:30:14.144Z,2.10
2019-01-31T12:31:16.233Z,1.80
2019-01-31T12:32:14.082Z,2.00
2019-01-31T12:33:14.059Z,1.90
2019-01-31T12:34:14.052Z,1.90
2019-01-31T12:35:14.067Z,1.80
2019-01-31T12:36:14.037Z,1.90
2019-01-31T12:37:14.014Z,2.00
2019-01-31T12:38:14.021Z,2.10
2019-01-31T12:39:13.996Z,1.70
2019-01-31T12:40:14.002Z,2.00
2019-01-31T12:41:13.995Z,1.70
2019-01-31T12:42:13.965Z,1.90
2019-01-31T12:43:13.967Z,1.90
2019-01-31T12:44:13.941Z,1.80
2019-01-31T12:45:13.934Z,1.80
2019-01-31T12:46:13.956Z,2.00
2019-01-31T12:47:14.296Z,2.10
2019-01-31T12:48:13.916Z,1.70
2019-01-31T12:49:13.891Z,2.00
2019-01-31T12:50:13.878Z,2.10
2019-01-31T12:51:14.962Z,1.90
2019-01-31T12:52:13.859Z,1.60
2019-01-31T12:53:13.850Z,2.00
2019-01-31T12:54:13.843Z,1.90
2019-01-31T12:55:13.813Z,1.60
2019-01-31T12:56:13.837Z,1.60
2019-01-31T12:57:15.024Z,1.90
2019-01-31T12:58:13.788Z,2.20
2019-01-31T12:59:13.973Z,1.70
2019-01-31T13:00:13.772Z,2.00
2019-01-31T13:01:13.790Z,2.00
2019-01-31T13:02:13.748Z,2.10
2019-01-31T13:03:13.753Z,2.20
2019-01-31T13:04:13.732Z,2.00
2019-01-31T13:05:13.731Z,1.90
2019-01-31T13:06:13.727Z,2.00
2019-01-31T13:07:13.714Z,2.20
2019-01-31T13:08:15.087Z,1.90
2019-01-31T13:09:13.691Z,2.00
2019-01-31T13:10:13.664Z,1.90
2019-01-31T13:11:13.697Z,2.30
2019-01-31T13:12:14.791Z,2.20
2019-01-31T13:13:13.626Z,2.10
2019-01-31T13:14:13.624Z,1.90
2019-01-31T13:15:13.603Z,2.00
2019-01-31T13:16:13.620Z,1.90
2019-01-31T13:17:13.620Z,2.20
2019-01-31T13:18:13.608Z,2.30